sensor_id;sensor_type;location;lat;lon;timestamp;temperature;humidity
46181;DHT22;58963;50.438;30.594;2022-11-10T00:03:36;5.40;99.90
46181;DHT22;58963;50.438;30.594;2022-11-10T00:09:01;5.40;99.90
46181;DHT22;58963;50.438;30.594;2022-11-10T00:14:23;5.30;99.90
46181;DHT22;58963;50.438;30.594;2022-11-10T00:20:02;5.20;99.90
46181;DHT22;58963;50.438;30.594;2022-11-10T00:25:28;5.20;99.90
46181;DHT22;58963;50.438;30.594;2022-11-10T00:30:49;5.20;99.90
46181;DHT22;58963;50.438;30.594;2022-11-10T00:36:09;5.20;99.90
46181;DHT22;58963;50.438;30.594;2022-11-10T00:41:28;5.20;99.90
46181;DHT22;58963;50.438;30.594;2022-11-10T00:46:48;5.20;99.90
46181;DHT22;58963;50.438;30.594;2022-11-10T00:52:07;5.10;99.90
46181;DHT22;58963;50.438;30.594;2022-11-10T00:57:26;5.10;99.90
46181;DHT22;58963;50.438;30.594;2022-11-10T01:02:45;5.00;99.90
46181;DHT22;58963;50.438;30.594;2022-11-10T01:08:05;5.00;99.90
46181;DHT22;58963;50.438;30.594;2022-11-10T01:13:24;5.00;99.90
46181;DHT22;58963;50.438;30.594;2022-11-10T01:18:48;4.90;99.90
46181;DHT22;58963;50.438;30.594;2022-11-10T01:24:07;4.90;99.90
46181;DHT22;58963;50.438;30.594;2022-11-10T01:29:26;4.90;99.90
46181;DHT22;58963;50.438;30.594;2022-11-10T01:34:45;4.80;99.90
46181;DHT22;58963;50.438;30.594;2022-11-10T01:40:05;4.80;99.90
46181;DHT22;58963;50.438;30.594;2022-11-10T01:51:20;4.80;99.90
46181;DHT22;58963;50.438;30.594;2022-11-10T01:56:48;4.70;99.90
46181;DHT22;58963;50.438;30.594;2022-11-10T02:02:18;4.60;99.90
46181;DHT22;58963;50.438;30.594;2022-11-10T02:07:38;4.60;99.90
46181;DHT22;58963;50.438;30.594;2022-11-10T02:12:58;4.60;99.90
46181;DHT22;58963;50.438;30.594;2022-11-10T02:18:17;4.50;99.90
46181;DHT22;58963;50.438;30.594;2022-11-10T02:28:55;4.40;99.90
46181;DHT22;58963;50.438;30.594;2022-11-10T02:34:14;4.40;99.90
46181;DHT22;58963;50.438;30.594;2022-11-10T02:39:33;4.60;99.90
46181;DHT22;58963;50.438;30.594;2022-11-10T02:44:53;4.80;99.90
46181;DHT22;58963;50.438;30.594;2022-11-10T02:50:12;4.80;99.90
46181;DHT22;58963;50.438;30.594;2022-11-10T02:55:32;4.60;99.90
46181;DHT22;58963;50.438;30.594;2022-11-10T03:00:51;4.80;99.90
46181;DHT22;58963;50.438;30.594;2022-11-10T03:06:10;5.10;99.90
46181;DHT22;58963;50.438;30.594;2022-11-10T03:11:30;5.20;99.90
46181;DHT22;58963;50.438;30.594;2022-11-10T03:16:49;5.40;99.90
46181;DHT22;58963;50.438;30.594;2022-11-10T03:22:08;5.40;99.90
46181;DHT22;58963;50.438;30.594;2022-11-10T03:27:27;5.50;99.90
46181;DHT22;58963;50.438;30.594;2022-11-10T03:32:46;5.60;99.90
46181;DHT22;58963;50.438;30.594;2022-11-10T03:38:05;5.70;99.90
46181;DHT22;58963;50.438;30.594;2022-11-10T03:43:25;5.80;99.90
46181;DHT22;58963;50.438;30.594;2022-11-10T03:48:44;6.00;99.90
46181;DHT22;58963;50.438;30.594;2022-11-10T03:54:04;6.10;99.90
46181;DHT22;58963;50.438;30.594;2022-11-10T03:59:23;6.10;99.90
46181;DHT22;58963;50.438;30.594;2022-11-10T04:04:42;6.30;99.90
46181;DHT22;58963;50.438;30.594;2022-11-10T04:10:21;6.30;99.90
46181;DHT22;58963;50.438;30.594;2022-11-10T04:15:40;6.20;99.90
46181;DHT22;58963;50.438;30.594;2022-11-10T04:21:01;6.20;99.90
46181;DHT22;58963;50.438;30.594;2022-11-10T04:26:21;6.10;99.90
46181;DHT22;58963;50.438;30.594;2022-11-10T04:31:46;6.20;99.90
46181;DHT22;58963;50.438;30.594;2022-11-10T04:37:05;6.20;99.90
46181;DHT22;58963;50.438;30.594;2022-11-10T04:42:24;6.20;99.90
46181;DHT22;58963;50.438;30.594;2022-11-10T04:47:43;6.20;99.90
46181;DHT22;58963;50.438;30.594;2022-11-10T04:53:03;6.20;99.90
46181;DHT22;58963;50.438;30.594;2022-11-10T04:58:22;6.20;99.90
46181;DHT22;58963;50.438;30.594;2022-11-10T05:03:42;6.20;99.90
46181;DHT22;58963;50.438;30.594;2022-11-10T05:09:01;6.40;99.90
46181;DHT22;58963;50.438;30.594;2022-11-10T05:14:21;6.40;99.90
46181;DHT22;58963;50.438;30.594;2022-11-10T05:19:41;6.40;99.90
46181;DHT22;58963;50.438;30.594;2022-11-10T05:25:00;6.50;99.90
46181;DHT22;58963;50.438;30.594;2022-11-10T05:30:19;6.40;99.90
46181;DHT22;58963;50.438;30.594;2022-11-10T05:35:39;6.70;99.90
46181;DHT22;58963;50.438;30.594;2022-11-10T05:40:59;6.80;99.90
46181;DHT22;58963;50.438;30.594;2022-11-10T05:46:18;6.70;99.90
46181;DHT22;58963;50.438;30.594;2022-11-10T05:51:37;6.70;99.90
46181;DHT22;58963;50.438;30.594;2022-11-10T05:56:56;6.80;99.90
46181;DHT22;58963;50.438;30.594;2022-11-10T06:02:15;6.90;99.90
46181;DHT22;58963;50.438;30.594;2022-11-10T06:07:37;7.00;99.90
46181;DHT22;58963;50.438;30.594;2022-11-10T06:12:57;7.20;99.90
46181;DHT22;58963;50.438;30.594;2022-11-10T06:18:17;7.30;99.90
46181;DHT22;58963;50.438;30.594;2022-11-10T06:23:37;7.80;99.90
46181;DHT22;58963;50.438;30.594;2022-11-10T06:28:56;7.90;99.90
46181;DHT22;58963;50.438;30.594;2022-11-10T06:34:15;7.70;99.90
46181;DHT22;58963;50.438;30.594;2022-11-10T06:39:35;7.40;99.90
46181;DHT22;58963;50.438;30.594;2022-11-10T06:44:54;7.30;99.90
46181;DHT22;58963;50.438;30.594;2022-11-10T06:50:14;7.20;99.90
46181;DHT22;58963;50.438;30.594;2022-11-10T06:55:33;7.20;99.90
46181;DHT22;58963;50.438;30.594;2022-11-10T07:00:52;7.20;99.90
46181;DHT22;58963;50.438;30.594;2022-11-10T07:06:12;7.10;99.90
46181;DHT22;58963;50.438;30.594;2022-11-10T07:11:31;7.20;99.90
46181;DHT22;58963;50.438;30.594;2022-11-10T07:16:50;7.30;99.90
46181;DHT22;58963;50.438;30.594;2022-11-10T07:22:09;7.30;99.90
46181;DHT22;58963;50.438;30.594;2022-11-10T07:27:29;7.30;99.90
46181;DHT22;58963;50.438;30.594;2022-11-10T07:33:05;7.40;99.90
46181;DHT22;58963;50.438;30.594;2022-11-10T07:38:24;7.70;99.90
46181;DHT22;58963;50.438;30.594;2022-11-10T07:43:43;7.80;99.90
46181;DHT22;58963;50.438;30.594;2022-11-10T07:49:06;7.90;99.90
46181;DHT22;58963;50.438;30.594;2022-11-10T07:54:25;8.00;99.90
46181;DHT22;58963;50.438;30.594;2022-11-10T07:59:44;8.00;99.90
46181;DHT22;58963;50.438;30.594;2022-11-10T08:05:03;8.40;99.90
46181;DHT22;58963;50.438;30.594;2022-11-10T08:10:26;8.50;99.90
46181;DHT22;58963;50.438;30.594;2022-11-10T08:15:46;8.70;99.90
46181;DHT22;58963;50.438;30.594;2022-11-10T08:21:05;8.80;99.90
46181;DHT22;58963;50.438;30.594;2022-11-10T08:26:25;8.80;99.90
46181;DHT22;58963;50.438;30.594;2022-11-10T08:31:44;9.00;99.90
46181;DHT22;58963;50.438;30.594;2022-11-10T08:37:04;9.00;99.90
46181;DHT22;58963;50.438;30.594;2022-11-10T08:42:23;8.90;99.90
46181;DHT22;58963;50.438;30.594;2022-11-10T08:47:42;8.90;99.90
46181;DHT22;58963;50.438;30.594;2022-11-10T08:53:04;8.90;99.90
46181;DHT22;58963;50.438;30.594;2022-11-10T08:58:24;9.10;99.90
46181;DHT22;58963;50.438;30.594;2022-11-10T09:03:44;9.10;99.90
46181;DHT22;58963;50.438;30.594;2022-11-10T09:09:03;9.00;99.90
46181;DHT22;58963;50.438;30.594;2022-11-10T09:14:22;9.20;99.90
46181;DHT22;58963;50.438;30.594;2022-11-10T09:19:41;9.10;99.90
46181;DHT22;58963;50.438;30.594;2022-11-10T09:25:04;9.10;99.90
46181;DHT22;58963;50.438;30.594;2022-11-10T09:30:24;9.20;99.90
46181;DHT22;58963;50.438;30.594;2022-11-10T09:35:44;9.40;99.90
46181;DHT22;58963;50.438;30.594;2022-11-10T09:41:07;9.10;99.90
46181;DHT22;58963;50.438;30.594;2022-11-10T09:46:36;9.00;99.90
46181;DHT22;58963;50.438;30.594;2022-11-10T09:51:58;8.90;99.90
46181;DHT22;58963;50.438;30.594;2022-11-10T09:57:21;9.20;99.90
46181;DHT22;58963;50.438;30.594;2022-11-10T13:13:26;8.90;99.90
46181;DHT22;58963;50.438;30.594;2022-11-10T13:29:54;8.70;99.90
46181;DHT22;58963;50.438;30.594;2022-11-10T13:40:46;8.70;99.90
46181;DHT22;58963;50.438;30.594;2022-11-10T13:46:06;8.60;99.90
46181;DHT22;58963;50.438;30.594;2022-11-10T13:51:46;8.60;99.90
46181;DHT22;58963;50.438;30.594;2022-11-10T13:57:34;8.60;99.90
46181;DHT22;58963;50.438;30.594;2022-11-10T14:02:56;8.60;99.90
46181;DHT22;58963;50.438;30.594;2022-11-10T14:08:22;8.60;99.90
46181;DHT22;58963;50.438;30.594;2022-11-10T14:14:17;8.50;99.90
46181;DHT22;58963;50.438;30.594;2022-11-10T14:19:40;8.50;99.90
46181;DHT22;58963;50.438;30.594;2022-11-10T14:25:16;8.60;99.90
46181;DHT22;58963;50.438;30.594;2022-11-10T14:30:37;8.50;99.90
46181;DHT22;58963;50.438;30.594;2022-11-10T14:35:59;8.50;99.90
46181;DHT22;58963;50.438;30.594;2022-11-10T14:41:27;8.40;99.90
46181;DHT22;58963;50.438;30.594;2022-11-10T14:46:46;8.50;99.90
46181;DHT22;58963;50.438;30.594;2022-11-10T14:52:05;8.50;99.90
46181;DHT22;58963;50.438;30.594;2022-11-10T14:57:24;8.40;99.90
46181;DHT22;58963;50.438;30.594;2022-11-10T15:02:44;8.50;99.90
46181;DHT22;58963;50.438;30.594;2022-11-10T15:08:03;8.40;99.90
46181;DHT22;58963;50.438;30.594;2022-11-10T15:18:45;8.50;99.90
46181;DHT22;58963;50.438;30.594;2022-11-10T15:24:09;8.50;99.90
46181;DHT22;58963;50.438;30.594;2022-11-10T15:29:29;8.50;99.90
46181;DHT22;58963;50.438;30.594;2022-11-10T15:34:49;8.40;99.90
46181;DHT22;58963;50.438;30.594;2022-11-10T15:45:58;8.40;99.90
46181;DHT22;58963;50.438;30.594;2022-11-10T15:51:19;8.50;99.90
46181;DHT22;58963;50.438;30.594;2022-11-10T15:56:38;8.40;99.90
46181;DHT22;58963;50.438;30.594;2022-11-10T16:01:58;8.40;99.90
46181;DHT22;58963;50.438;30.594;2022-11-10T16:07:20;8.40;99.90
46181;DHT22;58963;50.438;30.594;2022-11-10T16:13:01;8.40;99.90
46181;DHT22;58963;50.438;30.594;2022-11-10T16:18:24;8.50;99.90
46181;DHT22;58963;50.438;30.594;2022-11-10T16:23:44;8.50;99.90
46181;DHT22;58963;50.438;30.594;2022-11-10T16:29:10;8.60;99.90
46181;DHT22;58963;50.438;30.594;2022-11-10T16:34:31;8.60;99.90
46181;DHT22;58963;50.438;30.594;2022-11-10T16:39:51;8.60;99.90
46181;DHT22;58963;50.438;30.594;2022-11-10T16:50:35;8.60;99.90
46181;DHT22;58963;50.438;30.594;2022-11-10T16:55:56;8.50;99.90
46181;DHT22;58963;50.438;30.594;2022-11-10T17:01:22;8.50;99.90
46181;DHT22;58963;50.438;30.594;2022-11-10T17:06:43;8.50;99.90
46181;DHT22;58963;50.438;30.594;2022-11-10T17:12:02;8.50;99.90
46181;DHT22;58963;50.438;30.594;2022-11-10T17:17:22;8.50;99.90
46181;DHT22;58963;50.438;30.594;2022-11-10T17:22:52;8.50;99.90
46181;DHT22;58963;50.438;30.594;2022-11-10T17:33:31;8.50;99.90
46181;DHT22;58963;50.438;30.594;2022-11-10T17:38:51;8.50;99.90
46181;DHT22;58963;50.438;30.594;2022-11-10T17:56:44;8.50;99.90
46181;DHT22;58963;50.438;30.594;2022-11-10T18:02:07;8.50;99.90
46181;DHT22;58963;50.438;30.594;2022-11-10T18:07:27;8.60;99.90
46181;DHT22;58963;50.438;30.594;2022-11-10T18:12:50;8.60;99.90
46181;DHT22;58963;50.438;30.594;2022-11-10T18:18:13;8.60;99.90
46181;DHT22;58963;50.438;30.594;2022-11-10T18:23:33;8.70;99.90
46181;DHT22;58963;50.438;30.594;2022-11-10T18:28:53;8.70;99.90
46181;DHT22;58963;50.438;30.594;2022-11-10T18:34:15;8.70;99.90
46181;DHT22;58963;50.438;30.594;2022-11-10T18:39:40;8.60;99.90
46181;DHT22;58963;50.438;30.594;2022-11-10T18:45:00;8.60;99.90
46181;DHT22;58963;50.438;30.594;2022-11-10T18:50:19;8.70;99.90
46181;DHT22;58963;50.438;30.594;2022-11-10T18:55:38;8.70;99.90
46181;DHT22;58963;50.438;30.594;2022-11-10T19:01:04;8.70;99.90
46181;DHT22;58963;50.438;30.594;2022-11-10T19:06:24;8.70;99.90
46181;DHT22;58963;50.438;30.594;2022-11-10T19:11:43;8.70;99.90
46181;DHT22;58963;50.438;30.594;2022-11-10T19:17:13;8.70;99.90
46181;DHT22;58963;50.438;30.594;2022-11-10T19:22:35;8.70;99.90
46181;DHT22;58963;50.438;30.594;2022-11-10T19:27:55;8.70;99.90
46181;DHT22;58963;50.438;30.594;2022-11-10T19:33:15;8.70;99.90
46181;DHT22;58963;50.438;30.594;2022-11-10T19:38:35;8.80;99.90
46181;DHT22;58963;50.438;30.594;2022-11-10T19:43:55;8.80;99.90
46181;DHT22;58963;50.438;30.594;2022-11-10T19:49:15;8.80;99.90
46181;DHT22;58963;50.438;30.594;2022-11-10T19:54:34;8.70;99.90
46181;DHT22;58963;50.438;30.594;2022-11-10T19:59:54;8.70;99.90
46181;DHT22;58963;50.438;30.594;2022-11-10T20:05:14;8.80;99.90
46181;DHT22;58963;50.438;30.594;2022-11-10T20:10:38;8.80;99.90
46181;DHT22;58963;50.438;30.594;2022-11-10T20:15:57;8.80;99.90
46181;DHT22;58963;50.438;30.594;2022-11-10T20:21:19;8.80;99.90
46181;DHT22;58963;50.438;30.594;2022-11-10T20:26:41;8.80;99.90
46181;DHT22;58963;50.438;30.594;2022-11-10T20:32:01;8.80;99.90
46181;DHT22;58963;50.438;30.594;2022-11-10T20:37:24;8.80;99.90
46181;DHT22;58963;50.438;30.594;2022-11-10T20:42:44;8.80;99.90
46181;DHT22;58963;50.438;30.594;2022-11-10T20:48:04;8.80;99.90
46181;DHT22;58963;50.438;30.594;2022-11-10T20:53:27;8.80;99.90
46181;DHT22;58963;50.438;30.594;2022-11-10T20:58:47;8.80;99.90
46181;DHT22;58963;50.438;30.594;2022-11-10T21:04:07;8.80;99.90
46181;DHT22;58963;50.438;30.594;2022-11-10T21:09:28;8.80;99.90
46181;DHT22;58963;50.438;30.594;2022-11-10T21:14:47;8.80;99.90
46181;DHT22;58963;50.438;30.594;2022-11-10T21:20:06;8.80;99.90
46181;DHT22;58963;50.438;30.594;2022-11-10T21:25:26;8.80;99.90
46181;DHT22;58963;50.438;30.594;2022-11-10T21:30:46;8.80;99.90
46181;DHT22;58963;50.438;30.594;2022-11-10T21:36:06;8.90;99.90
46181;DHT22;58963;50.438;30.594;2022-11-10T21:41:26;8.90;99.90
46181;DHT22;58963;50.438;30.594;2022-11-10T21:46:45;8.90;99.90
46181;DHT22;58963;50.438;30.594;2022-11-10T21:52:04;8.90;99.90
46181;DHT22;58963;50.438;30.594;2022-11-10T21:57:24;8.90;99.90
46181;DHT22;58963;50.438;30.594;2022-11-10T22:02:43;8.80;99.90
46181;DHT22;58963;50.438;30.594;2022-11-10T22:08:03;8.90;99.90
46181;DHT22;58963;50.438;30.594;2022-11-10T22:13:22;8.90;99.90
46181;DHT22;58963;50.438;30.594;2022-11-10T22:19:00;8.90;99.90
46181;DHT22;58963;50.438;30.594;2022-11-10T22:24:19;9.00;99.90
46181;DHT22;58963;50.438;30.594;2022-11-10T22:29:42;9.00;99.90
46181;DHT22;58963;50.438;30.594;2022-11-10T22:35:01;9.00;99.90
46181;DHT22;58963;50.438;30.594;2022-11-10T22:40:21;9.00;99.90
46181;DHT22;58963;50.438;30.594;2022-11-10T22:45:59;9.00;99.90
46181;DHT22;58963;50.438;30.594;2022-11-10T22:51:19;9.00;99.90
46181;DHT22;58963;50.438;30.594;2022-11-10T22:56:38;9.00;99.90
46181;DHT22;58963;50.438;30.594;2022-11-10T23:01:57;9.00;99.90
46181;DHT22;58963;50.438;30.594;2022-11-10T23:07:17;9.10;99.90
46181;DHT22;58963;50.438;30.594;2022-11-10T23:12:36;9.00;99.90
46181;DHT22;58963;50.438;30.594;2022-11-10T23:17:55;9.10;99.90
46181;DHT22;58963;50.438;30.594;2022-11-10T23:23:14;9.10;99.90
46181;DHT22;58963;50.438;30.594;2022-11-10T23:28:34;9.10;99.90
46181;DHT22;58963;50.438;30.594;2022-11-10T23:33:55;9.10;99.90
46181;DHT22;58963;50.438;30.594;2022-11-10T23:39:15;9.00;99.90
46181;DHT22;58963;50.438;30.594;2022-11-10T23:44:34;9.00;99.90
46181;DHT22;58963;50.438;30.594;2022-11-10T23:49:54;9.00;99.90
46181;DHT22;58963;50.438;30.594;2022-11-10T23:55:13;9.10;99.90
